createdAt,value
2018-09-03T00:01:13.609Z,5.47
2018-09-03T00:03:42.121Z,5.07
2018-09-03T00:06:10.697Z,3.93
2018-09-03T00:08:39.221Z,5.10
2018-09-03T00:11:07.780Z,6.40
2018-09-03T00:13:36.320Z,6.47
2018-09-03T00:16:04.921Z,6.47
2018-09-03T00:18:33.457Z,7.03
2018-09-03T00:21:02.025Z,5.97
2018-09-03T00:23:30.561Z,4.67
2018-09-03T00:25:59.121Z,8.93
2018-09-03T00:28:27.661Z,5.27
2018-09-03T00:31:01.674Z,5.20
2018-09-03T00:33:35.514Z,9.13
2018-09-03T00:36:09.578Z,6.67
2018-09-03T00:38:43.656Z,4.87
2018-09-03T00:41:17.373Z,4.63
2018-09-03T00:43:51.180Z,7.30
2018-09-03T00:46:25.099Z,3.97
2018-09-03T00:48:53.673Z,5.70
2018-09-03T00:51:22.233Z,6.10
2018-09-03T00:53:50.762Z,4.30
2018-09-03T00:56:19.325Z,4.93
2018-09-03T00:58:47.849Z,4.87
2018-09-03T01:01:16.414Z,3.70
2018-09-03T01:03:44.945Z,4.90
2018-09-03T01:06:13.517Z,3.80
2018-09-03T01:08:42.050Z,4.00
2018-09-03T01:11:10.590Z,4.37
2018-09-03T01:13:39.118Z,6.37
2018-09-03T01:16:07.662Z,3.37
2018-09-03T01:18:42.445Z,5.70
2018-09-03T01:21:12.037Z,4.33
2018-09-03T01:23:40.565Z,3.77
2018-09-03T01:26:09.219Z,5.60
2018-09-03T01:28:37.730Z,3.50
2018-09-03T01:31:06.374Z,7.57
2018-09-03T01:33:35.042Z,3.60
2018-09-03T01:36:03.586Z,2.70
2018-09-03T01:38:32.133Z,4.13
2018-09-03T01:41:00.664Z,5.27
2018-09-03T01:43:29.173Z,6.20
2018-09-03T01:45:57.709Z,4.43
2018-09-03T01:48:26.219Z,4.73
2018-09-03T01:50:54.759Z,5.07
2018-09-03T01:53:23.265Z,3.73
2018-09-03T01:55:51.805Z,6.20
2018-09-03T01:58:20.321Z,6.53
2018-09-03T02:00:48.853Z,3.37
2018-09-03T02:03:17.372Z,3.97
2018-09-03T02:05:45.987Z,3.47
2018-09-03T02:08:14.510Z,4.20
2018-09-03T02:10:43.051Z,4.73
2018-09-03T02:13:11.549Z,5.27
2018-09-03T02:15:40.109Z,3.50
2018-09-03T02:18:08.633Z,4.23
2018-09-03T02:20:37.203Z,4.23
2018-09-03T02:23:06.038Z,4.33
2018-09-03T02:25:34.572Z,6.07
2018-09-03T02:28:03.114Z,7.00
2018-09-03T02:30:31.649Z,5.30
2018-09-03T02:33:00.247Z,4.30
2018-09-03T02:35:28.758Z,4.10
2018-09-03T02:37:57.323Z,4.57
2018-09-03T02:40:25.833Z,4.60
2018-09-03T02:42:54.373Z,3.70
2018-09-03T02:45:22.900Z,12.33
2018-09-03T02:47:51.474Z,4.87
2018-09-03T02:50:20.006Z,7.70
2018-09-03T02:52:48.574Z,7.13
2018-09-03T02:55:17.141Z,4.70
2018-09-03T02:57:45.677Z,5.67
2018-09-03T03:00:14.457Z,3.73
2018-09-03T03:02:42.992Z,4.93
2018-09-03T03:05:11.537Z,5.97
2018-09-03T03:07:40.077Z,5.67
2018-09-03T03:10:08.620Z,6.87
2018-09-03T03:12:37.558Z,6.20
2018-09-03T03:15:06.206Z,7.70
2018-09-03T03:17:34.778Z,3.30
2018-09-03T03:20:03.319Z,4.23
2018-09-03T03:22:31.857Z,3.90
2018-09-03T03:25:00.385Z,4.00
2018-09-03T03:27:28.918Z,4.57
2018-09-03T03:29:57.453Z,6.07
2018-09-03T03:32:25.994Z,5.23
2018-09-03T03:34:54.514Z,5.80
2018-09-03T03:37:23.058Z,4.03
2018-09-03T03:39:51.583Z,4.03
2018-09-03T03:42:20.136Z,4.80
2018-09-03T03:44:48.661Z,5.90
2018-09-03T03:47:17.200Z,3.87
2018-09-03T03:49:45.710Z,4.70
2018-09-03T03:52:14.248Z,6.93
2018-09-03T03:54:42.760Z,10.77
2018-09-03T03:57:11.304Z,5.00
2018-09-03T03:59:39.822Z,4.33
2018-09-03T04:02:08.425Z,5.30
2018-09-03T04:04:36.952Z,5.93
2018-09-03T04:07:05.756Z,4.10
2018-09-03T04:09:34.293Z,5.20
2018-09-03T04:12:02.801Z,4.67
2018-09-03T04:14:31.346Z,4.43
2018-09-03T04:16:59.872Z,7.57
2018-09-03T04:19:28.522Z,4.33
2018-09-03T04:21:57.037Z,4.40
2018-09-03T04:24:25.687Z,4.50
2018-09-03T04:26:54.201Z,5.27
2018-09-03T04:29:22.742Z,4.73
2018-09-03T04:31:51.258Z,4.97
2018-09-03T04:34:19.813Z,5.70
2018-09-03T04:36:48.321Z,4.20
2018-09-03T04:39:16.869Z,4.03
2018-09-03T04:41:45.389Z,6.87
2018-09-03T04:44:13.945Z,5.43
2018-09-03T04:46:42.453Z,5.17
2018-09-03T04:49:10.989Z,4.67
2018-09-03T04:51:39.516Z,6.00
2018-09-03T04:54:08.061Z,4.37
2018-09-03T04:56:36.567Z,5.70
2018-09-03T04:59:05.739Z,6.13
2018-09-03T05:01:35.094Z,5.30
2018-09-03T05:04:03.609Z,4.57
2018-09-03T05:06:32.145Z,5.10
2018-09-03T05:09:00.690Z,5.90
2018-09-03T05:11:29.246Z,4.93
2018-09-03T05:13:57.873Z,4.47
2018-09-03T05:16:26.376Z,4.47
2018-09-03T05:18:54.922Z,5.07
2018-09-03T05:21:23.461Z,4.50
2018-09-03T05:23:52.005Z,6.70
2018-09-03T05:26:20.598Z,6.23
2018-09-03T05:28:49.145Z,5.10
2018-09-03T05:31:17.707Z,3.83
2018-09-03T05:33:46.293Z,4.97
2018-09-03T05:36:14.880Z,5.93
2018-09-03T05:38:47.237Z,4.50
2018-09-03T05:41:17.594Z,4.90
2018-09-03T05:43:46.347Z,7.97
2018-09-03T05:46:14.852Z,5.53
2018-09-03T05:48:43.423Z,7.73
2018-09-03T05:51:12.028Z,4.47
2018-09-03T05:53:40.641Z,7.27
2018-09-03T05:56:09.244Z,6.07
2018-09-03T05:58:37.994Z,6.90
2018-09-03T06:01:06.678Z,5.00
2018-09-03T06:03:35.552Z,4.97
2018-09-03T06:06:07.088Z,5.00
2018-09-03T06:08:35.632Z,5.00
2018-09-03T06:11:04.221Z,5.87
2018-09-03T06:13:32.854Z,4.20
2018-09-03T06:16:01.569Z,4.90
2018-09-03T06:18:30.130Z,6.50
2018-09-03T06:20:58.698Z,7.70
2018-09-03T06:23:27.266Z,6.63
2018-09-03T06:25:55.829Z,9.37
2018-09-03T06:28:24.407Z,6.30
2018-09-03T06:30:52.937Z,7.33
2018-09-03T06:33:21.568Z,5.60
2018-09-03T06:35:50.295Z,6.77
2018-09-03T06:38:18.865Z,6.00
2018-09-03T06:40:47.617Z,5.93
2018-09-03T06:43:16.208Z,6.63
2018-09-03T06:45:44.826Z,5.60
2018-09-03T06:48:13.371Z,5.53
2018-09-03T06:50:41.941Z,7.57
2018-09-03T06:53:10.539Z,5.83
2018-09-03T06:55:47.617Z,5.87
2018-09-03T06:58:19.646Z,6.80
2018-09-03T07:00:48.827Z,7.13
2018-09-03T07:03:17.341Z,9.83
2018-09-03T07:05:45.965Z,6.30
2018-09-03T07:08:14.494Z,5.73
2018-09-03T07:10:43.087Z,5.47
2018-09-03T07:13:11.697Z,5.03
2018-09-03T07:15:40.336Z,5.93
2018-09-03T07:18:08.857Z,8.03
2018-09-03T07:20:37.438Z,5.87
2018-09-03T07:23:06.245Z,6.20
2018-09-03T07:25:34.830Z,5.77
2018-09-03T07:28:03.371Z,5.83
2018-09-03T07:30:31.932Z,5.57
2018-09-03T07:33:00.443Z,5.57
2018-09-03T07:35:29.801Z,5.93
2018-09-03T07:37:59.154Z,5.87
2018-09-03T07:40:27.927Z,4.97
2018-09-03T07:42:56.460Z,7.73
2018-09-03T07:45:25.010Z,5.40
2018-09-03T07:47:53.581Z,6.53
2018-09-03T07:50:23.071Z,5.20
2018-09-03T07:52:51.777Z,4.60
2018-09-03T07:55:20.371Z,6.13
2018-09-03T07:57:49.861Z,6.63
2018-09-03T08:00:18.804Z,6.50
2018-09-03T08:02:47.358Z,6.87
2018-09-03T08:05:17.782Z,5.90
2018-09-03T08:07:46.362Z,5.10
2018-09-03T08:10:14.926Z,4.13
2018-09-03T08:12:43.471Z,6.30
2018-09-03T08:15:12.033Z,6.30
2018-09-03T08:17:40.600Z,7.40
2018-09-03T08:20:09.316Z,6.60
2018-09-03T08:22:38.247Z,7.40
2018-09-03T08:25:06.909Z,5.33
2018-09-03T08:27:36.278Z,4.90
2018-09-03T08:30:05.632Z,7.27
2018-09-03T08:32:34.154Z,7.03
2018-09-03T08:35:02.810Z,4.93
2018-09-03T08:37:31.570Z,4.73
2018-09-03T08:40:00.265Z,4.37
2018-09-03T08:42:28.738Z,4.20
2018-09-03T08:44:57.345Z,5.03
2018-09-03T08:47:26.313Z,3.90
2018-09-03T08:49:54.905Z,4.57
2018-09-03T08:52:23.458Z,7.70
2018-09-03T08:54:52.114Z,9.00
2018-09-03T08:57:20.708Z,4.67
2018-09-03T08:59:49.305Z,5.37
2018-09-03T09:02:17.824Z,4.80
2018-09-03T09:04:46.510Z,6.20
2018-09-03T09:07:15.298Z,4.70
2018-09-03T09:09:43.947Z,4.13
2018-09-03T09:12:12.490Z,7.23
2018-09-03T09:14:41.068Z,6.23
2018-09-03T09:17:09.610Z,4.00
2018-09-03T09:19:38.223Z,4.07
2018-09-03T09:22:06.916Z,5.60
2018-09-03T09:24:35.531Z,5.43
2018-09-03T09:27:04.136Z,4.30
2018-09-03T09:29:32.707Z,4.63
2018-09-03T09:32:01.527Z,5.37
2018-09-03T09:34:30.059Z,4.47
2018-09-03T09:36:58.698Z,5.40
2018-09-03T09:39:27.225Z,5.80
2018-09-03T09:41:55.775Z,4.57
2018-09-03T09:44:24.341Z,4.90
2018-09-03T09:46:52.907Z,3.33
2018-09-03T09:49:22.033Z,4.20
2018-09-03T09:51:50.766Z,6.03
2018-09-03T09:54:19.318Z,6.77
2018-09-03T09:56:47.905Z,6.70
2018-09-03T09:59:16.482Z,4.80
2018-09-03T10:01:45.078Z,4.20
2018-09-03T10:04:13.815Z,3.93
2018-09-03T10:06:42.472Z,5.17
2018-09-03T10:09:11.045Z,4.13
2018-09-03T10:11:40.825Z,4.00
2018-09-03T10:14:09.360Z,5.13
2018-09-03T10:16:38.869Z,5.20
2018-09-03T10:19:07.394Z,3.80
2018-09-03T10:21:35.919Z,4.77
2018-09-03T10:24:04.481Z,4.47
2018-09-03T10:26:33.053Z,4.23
2018-09-03T10:29:01.812Z,4.90
2018-09-03T10:31:30.333Z,4.70
2018-09-03T10:33:58.830Z,3.63
2018-09-03T10:36:27.405Z,3.63
2018-09-03T10:38:55.895Z,3.97
2018-09-03T10:41:24.418Z,3.53
2018-09-03T10:43:52.943Z,4.67
2018-09-03T10:46:21.469Z,3.10
2018-09-03T10:48:49.971Z,5.17
2018-09-03T10:51:18.560Z,4.13
2018-09-03T10:53:47.077Z,3.73
2018-09-03T10:56:15.737Z,3.23
2018-09-03T10:58:45.987Z,3.93
2018-09-03T11:01:14.530Z,3.13
2018-09-03T11:03:43.049Z,3.20
2018-09-03T11:06:11.604Z,4.50
2018-09-03T11:08:42.204Z,3.67
2018-09-03T11:11:10.873Z,4.17
2018-09-03T11:13:39.446Z,4.90
2018-09-03T11:16:08.064Z,2.90
2018-09-03T11:18:36.661Z,4.23
2018-09-03T11:21:05.499Z,3.20
2018-09-03T11:23:34.786Z,5.27
2018-09-03T11:26:03.556Z,3.37
2018-09-03T11:28:32.951Z,4.60
2018-09-03T11:31:01.433Z,4.00
2018-09-03T11:33:29.966Z,2.97
2018-09-03T11:35:58.533Z,4.03
2018-09-03T11:38:27.032Z,3.53
2018-09-03T11:40:55.593Z,3.93
2018-09-03T11:43:24.099Z,4.03
2018-09-03T11:45:52.665Z,2.97
2018-09-03T11:48:21.268Z,5.00
2018-09-03T11:50:49.800Z,5.90
2018-09-03T11:53:18.308Z,3.93
2018-09-03T11:55:47.734Z,2.60
2018-09-03T11:58:16.305Z,5.30
2018-09-03T12:00:46.245Z,3.67
2018-09-03T12:03:14.799Z,3.23
2018-09-03T12:05:43.333Z,3.27
2018-09-03T12:08:11.885Z,3.87
2018-09-03T12:10:40.453Z,3.03
2018-09-03T12:13:09.042Z,3.33
2018-09-03T12:15:40.149Z,4.40
2018-09-03T12:18:08.681Z,3.10
2018-09-03T12:20:37.222Z,4.37
2018-09-03T12:23:05.771Z,4.67
2018-09-03T12:25:34.274Z,3.03
2018-09-03T12:28:03.326Z,3.20
2018-09-03T12:30:31.837Z,4.27
2018-09-03T12:33:00.616Z,3.53
2018-09-03T12:35:29.224Z,4.10
2018-09-03T12:37:58.513Z,4.33
2018-09-03T12:40:27.058Z,6.27
2018-09-03T12:42:55.625Z,3.03
2018-09-03T12:45:28.938Z,3.67
2018-09-03T12:47:57.705Z,3.57
2018-09-03T12:50:26.213Z,3.23
2018-09-03T12:52:54.950Z,2.97
2018-09-03T12:55:23.473Z,2.90
2018-09-03T12:57:52.128Z,4.40
2018-09-03T13:00:21.377Z,3.23
2018-09-03T13:02:50.568Z,3.30
2018-09-03T13:05:20.227Z,4.77
2018-09-03T13:07:49.216Z,3.37
2018-09-03T13:10:17.765Z,5.43
2018-09-03T13:12:47.762Z,3.20
2018-09-03T13:15:16.246Z,3.20
2018-09-03T13:17:44.773Z,3.30
2018-09-03T13:20:13.635Z,4.60
2018-09-03T13:22:42.412Z,3.67
2018-09-03T13:25:10.962Z,4.70
2018-09-03T13:27:39.503Z,3.87
2018-09-03T13:30:09.000Z,4.40
2018-09-03T13:32:37.513Z,4.37
2018-09-03T13:35:06.232Z,2.80
2018-09-03T13:37:34.961Z,3.40
2018-09-03T13:40:03.537Z,4.77
2018-09-03T13:42:32.076Z,3.30
2018-09-03T13:45:01.406Z,6.67
2018-09-03T13:47:29.930Z,2.77
2018-09-03T13:49:58.461Z,3.47
2018-09-03T13:52:27.009Z,3.40
2018-09-03T13:54:55.640Z,3.17
2018-09-03T13:57:24.091Z,4.17
2018-09-03T13:59:52.646Z,3.40
2018-09-03T14:02:21.179Z,3.57
2018-09-03T14:04:49.837Z,7.43
2018-09-03T14:07:18.399Z,3.60
2018-09-03T14:09:47.064Z,3.53
2018-09-03T14:12:15.653Z,3.73
2018-09-03T14:14:45.451Z,5.10
2018-09-03T14:17:14.046Z,3.37
2018-09-03T14:19:42.596Z,4.00
2018-09-03T14:22:11.138Z,7.10
2018-09-03T14:24:39.684Z,4.13
2018-09-03T14:27:08.305Z,4.57
2018-09-03T14:29:36.835Z,3.53
2018-09-03T14:32:05.345Z,4.00
2018-09-03T14:34:33.889Z,3.90
2018-09-03T14:37:02.459Z,4.57
2018-09-03T14:39:30.943Z,5.20
2018-09-03T14:41:59.445Z,4.13
2018-09-03T14:44:27.988Z,4.50
2018-09-03T14:46:56.537Z,4.00
2018-09-03T14:49:25.123Z,3.73
2018-09-03T14:51:53.626Z,4.37
2018-09-03T14:54:22.131Z,4.50
2018-09-03T14:56:50.693Z,4.97
2018-09-03T14:59:19.209Z,6.17
2018-09-03T15:01:47.733Z,4.13
2018-09-03T15:04:16.321Z,5.83
2018-09-03T15:06:44.867Z,4.27
2018-09-03T15:09:13.390Z,4.97
2018-09-03T15:11:41.916Z,5.30
2018-09-03T15:14:10.426Z,5.97
2018-09-03T15:16:38.949Z,6.37
2018-09-03T15:19:08.091Z,5.27
2018-09-03T15:21:36.629Z,7.67
2018-09-03T15:24:06.177Z,6.57
2018-09-03T15:26:34.761Z,5.60
2018-09-03T15:29:03.281Z,7.10
2018-09-03T15:31:31.813Z,5.90
2018-09-03T15:34:00.322Z,6.60
2018-09-03T15:36:28.975Z,5.80
2018-09-03T15:38:58.158Z,6.50
2018-09-03T15:41:26.711Z,6.23
2018-09-03T15:43:56.004Z,5.93
2018-09-03T15:46:24.537Z,8.37
2018-09-03T15:48:53.040Z,6.07
2018-09-03T15:51:21.567Z,6.30
2018-09-03T15:53:50.113Z,6.97
2018-09-03T15:56:18.700Z,6.23
2018-09-03T15:58:48.185Z,8.53
2018-09-03T16:01:17.180Z,6.53
2018-09-03T16:03:45.701Z,8.47
2018-09-03T16:06:14.271Z,6.07
2018-09-03T16:08:42.757Z,7.13
2018-09-03T16:11:11.285Z,5.57
2018-09-03T16:13:39.779Z,7.03
2018-09-03T16:16:08.321Z,6.37
2018-09-03T16:18:36.854Z,7.07
2018-09-03T16:21:05.761Z,6.30
2018-09-03T16:23:34.617Z,6.07
2018-09-03T16:26:03.428Z,5.90
2018-09-03T16:28:32.854Z,6.73
2018-09-03T16:31:01.378Z,7.20
2018-09-03T16:33:29.967Z,7.07
2018-09-03T16:35:58.581Z,7.57
2018-09-03T16:38:27.049Z,7.47
2018-09-03T16:40:55.559Z,7.43
2018-09-03T16:43:24.099Z,6.37
2018-09-03T16:45:52.604Z,6.57
2018-09-03T16:48:21.335Z,6.93
2018-09-03T16:50:49.848Z,6.93
2018-09-03T16:53:18.361Z,7.83
2018-09-03T16:55:46.901Z,9.67
2018-09-03T16:58:15.447Z,7.93
2018-09-03T17:00:43.954Z,7.10
2018-09-03T17:03:12.512Z,8.87
2018-09-03T17:05:41.329Z,8.10
2018-09-03T17:08:10.031Z,7.03
2018-09-03T17:10:38.410Z,6.63
2018-09-03T17:13:07.223Z,10.20
2018-09-03T17:15:35.733Z,7.03
2018-09-03T17:18:04.309Z,6.27
2018-09-03T17:20:32.867Z,6.23
2018-09-03T17:23:01.398Z,6.80
2018-09-03T17:25:30.179Z,6.40
2018-09-03T17:27:58.902Z,7.83
2018-09-03T17:30:27.401Z,9.33
2018-09-03T17:32:55.945Z,7.13
2018-09-03T17:35:25.408Z,7.47
2018-09-03T17:37:54.025Z,7.60
2018-09-03T17:40:22.529Z,7.47
2018-09-03T17:42:51.051Z,8.10
2018-09-03T17:45:19.581Z,8.27
2018-09-03T17:47:48.186Z,11.13
2018-09-03T17:50:16.736Z,10.40
2018-09-03T17:52:45.322Z,8.50
2018-09-03T17:55:13.853Z,7.47
2018-09-03T17:57:42.371Z,10.53
2018-09-03T18:00:10.937Z,7.93
2018-09-03T18:02:39.482Z,7.77
2018-09-03T18:05:08.093Z,9.90
2018-09-03T18:07:36.944Z,8.90
2018-09-03T18:10:05.546Z,8.87
2018-09-03T18:12:34.045Z,10.40
2018-09-03T18:15:02.590Z,10.63
2018-09-03T18:17:31.105Z,11.23
2018-09-03T18:19:59.646Z,8.43
2018-09-03T18:22:28.227Z,8.70
2018-09-03T18:24:56.828Z,8.37
2018-09-03T18:27:25.341Z,9.90
2018-09-03T18:29:53.906Z,8.57
2018-09-03T18:32:22.478Z,9.60
2018-09-03T18:34:51.010Z,9.77
2018-09-03T18:37:19.545Z,7.90
2018-09-03T18:39:48.531Z,8.83
2018-09-03T18:42:17.040Z,10.47
2018-09-03T18:44:45.651Z,8.57
2018-09-03T18:47:14.150Z,9.93
2018-09-03T18:49:42.687Z,9.27
2018-09-03T18:52:11.346Z,22.23
2018-09-03T18:54:39.889Z,20.23
2018-09-03T18:57:08.450Z,10.23
2018-09-03T18:59:36.989Z,9.63
2018-09-03T19:02:05.537Z,10.73
2018-09-03T19:04:34.061Z,10.00
2018-09-03T19:07:02.586Z,11.60
2018-09-03T19:09:31.121Z,8.67
2018-09-03T19:11:59.900Z,9.90
2018-09-03T19:14:28.429Z,8.60
2018-09-03T19:16:56.941Z,8.50
2018-09-03T19:19:25.517Z,11.57
2018-09-03T19:21:54.065Z,9.53
2018-09-03T19:24:22.622Z,9.60
2018-09-03T19:26:51.166Z,11.17
2018-09-03T19:29:19.690Z,10.67
2018-09-03T19:31:48.193Z,14.27
2018-09-03T19:34:16.745Z,11.27
2018-09-03T19:36:45.270Z,10.70
2018-09-03T19:39:13.961Z,10.20
2018-09-03T19:41:42.505Z,12.80
2018-09-03T19:44:11.202Z,10.57
2018-09-03T19:46:40.545Z,12.77
2018-09-03T19:49:10.015Z,11.50
2018-09-03T19:51:38.823Z,9.67
2018-09-03T19:54:07.331Z,12.37
2018-09-03T19:56:35.864Z,10.10
2018-09-03T19:59:04.565Z,11.97
2018-09-03T20:01:33.098Z,9.50
2018-09-03T20:04:01.599Z,9.77
2018-09-03T20:06:30.226Z,27.10
2018-09-03T20:08:58.801Z,17.03
2018-09-03T20:11:27.364Z,10.47
2018-09-03T20:13:55.950Z,11.33
2018-09-03T20:16:24.493Z,10.87
2018-09-03T20:18:53.078Z,11.63
2018-09-03T20:21:21.620Z,10.97
2018-09-03T20:23:50.121Z,15.17
2018-09-03T20:26:18.651Z,12.10
2018-09-03T20:28:47.189Z,10.17
2018-09-03T20:31:15.886Z,9.67
2018-09-03T20:33:44.324Z,14.17
2018-09-03T20:36:12.898Z,10.50
2018-09-03T20:38:41.368Z,11.10
2018-09-03T20:41:09.952Z,12.63
2018-09-03T20:43:38.453Z,10.47
2018-09-03T20:46:07.008Z,12.53
2018-09-03T20:48:35.553Z,11.73
2018-09-03T20:51:04.750Z,10.30
2018-09-03T20:53:33.312Z,11.23
2018-09-03T20:56:02.022Z,10.67
2018-09-03T20:58:30.535Z,10.57
2018-09-03T21:00:59.074Z,11.60
2018-09-03T21:03:27.566Z,10.77
2018-09-03T21:05:56.113Z,9.40
2018-09-03T21:08:24.702Z,9.47
2018-09-03T21:10:53.166Z,12.03
2018-09-03T21:13:21.665Z,12.77
2018-09-03T21:15:50.210Z,13.23
2018-09-03T21:18:18.721Z,12.50
2018-09-03T21:20:47.231Z,10.57
2018-09-03T21:23:15.728Z,10.63
2018-09-03T21:25:44.262Z,12.60
2018-09-03T21:28:12.880Z,11.80
2018-09-03T21:30:41.409Z,11.03
2018-09-03T21:33:09.931Z,13.43
2018-09-03T21:35:38.424Z,11.93
2018-09-03T21:38:07.001Z,11.80
2018-09-03T21:40:35.509Z,11.37
2018-09-03T21:43:04.041Z,13.50
2018-09-03T21:45:32.849Z,10.40
2018-09-03T21:48:01.370Z,11.27
2018-09-03T21:50:29.868Z,12.77
2018-09-03T21:52:58.383Z,11.47
2018-09-03T21:55:26.873Z,10.83
2018-09-03T21:57:55.404Z,14.93
2018-09-03T22:00:23.947Z,12.07
2018-09-03T22:02:52.522Z,13.77
2018-09-03T22:05:21.019Z,10.50
2018-09-03T22:07:49.584Z,12.23
2018-09-03T22:10:18.105Z,10.73
2018-09-03T22:12:46.646Z,11.17
2018-09-03T22:15:15.161Z,12.73
2018-09-03T22:17:43.691Z,11.97
2018-09-03T22:20:12.184Z,12.37
2018-09-03T22:22:40.713Z,13.43
2018-09-03T22:25:09.295Z,11.83
2018-09-03T22:27:37.852Z,10.20
2018-09-03T22:30:06.633Z,13.93
2018-09-03T22:32:35.137Z,12.20
2018-09-03T22:35:03.658Z,10.80
2018-09-03T22:37:32.173Z,11.37
2018-09-03T22:40:00.661Z,11.30
2018-09-03T22:42:29.175Z,10.77
2018-09-03T22:44:58.599Z,10.87
2018-09-03T22:47:27.112Z,11.67
2018-09-03T22:49:55.614Z,11.63
2018-09-03T22:52:24.129Z,10.73
2018-09-03T22:54:52.622Z,11.63
2018-09-03T22:57:21.146Z,10.70
2018-09-03T22:59:50.132Z,13.27
2018-09-03T23:02:18.653Z,12.63
2018-09-03T23:04:47.149Z,12.77
2018-09-03T23:07:15.769Z,10.87
2018-09-03T23:09:44.281Z,11.70
2018-09-03T23:12:12.807Z,12.73
2018-09-03T23:14:41.305Z,11.33
2018-09-03T23:17:09.846Z,10.37
2018-09-03T23:19:38.348Z,11.87
2018-09-03T23:22:06.869Z,11.17
2018-09-03T23:24:35.438Z,11.87
2018-09-03T23:27:03.965Z,13.53
2018-09-03T23:29:32.499Z,15.27
2018-09-03T23:32:00.985Z,12.20
2018-09-03T23:34:29.508Z,12.17
2018-09-03T23:36:57.988Z,13.43
2018-09-03T23:39:26.505Z,11.67
2018-09-03T23:41:55.001Z,11.77
2018-09-03T23:44:23.509Z,12.07
2018-09-03T23:46:52.041Z,12.50
2018-09-03T23:49:20.562Z,12.70
2018-09-03T23:51:49.049Z,16.93
2018-09-03T23:54:17.576Z,12.83
2018-09-03T23:56:46.090Z,12.17
2018-09-03T23:59:14.621Z,14.43
